Time;durP1;ratioP1;P1;durP2;ratioP2;P2;SDS_P1;SDS_P2;PMS_P1;PMS_P2;Temp;Humidity;BMP_temperature;BMP_pressure;BME280_temperature;BME280_humidity;BME280_pressure;Samples;Min_cycle;Max_cycle;Signal;HPM_P1;HPM_P2
2024/03/02 00:02:00;;;;;;;8.53;7.73;;;8.20;68.50;;;;;;5055838;28;20723;-56
2024/03/02 00:04:27;;;;;;;8.20;7.40;;;8.00;70.30;;;;;;5060439;28;20205;-59
2024/03/02 00:06:54;;;;;;;8.93;8.13;;;7.80;70.60;;;;;;5059583;28;20206;-59
2024/03/02 00:09:21;;;;;;;8.30;7.40;;;7.80;71.30;;;;;;5059508;28;20237;-59
2024/03/02 00:11:47;;;;;;;9.57;8.67;;;7.80;70.60;;;;;;5051906;28;20230;-62
2024/03/02 00:14:14;;;;;;;8.93;8.03;;;7.90;70.70;;;;;;5055177;28;20201;-58
2024/03/02 00:16:40;;;;;;;8.80;8.00;;;8.00;70.30;;;;;;5061182;28;20206;-59
2024/03/02 00:19:07;;;;;;;9.87;8.60;;;8.10;69.80;;;;;;5054116;28;20270;-60
2024/03/02 00:21:34;;;;;;;8.10;7.40;;;8.20;68.70;;;;;;5055049;28;20245;-58
2024/03/02 00:24:00;;;;;;;9.17;8.30;;;8.10;69.10;;;;;;5056783;28;20202;-59
2024/03/02 00:26:27;;;;;;;8.20;7.47;;;8.10;68.80;;;;;;5060510;28;20209;-59
2024/03/02 00:28:53;;;;;;;8.73;7.77;;;8.10;68.70;;;;;;5050429;28;20263;-59
2024/03/02 00:31:20;;;;;;;8.67;7.97;;;8.10;69.40;;;;;;5059810;28;20229;-59
2024/03/02 00:33:46;;;;;;;9.13;8.33;;;8.10;69.30;;;;;;5054073;28;20203;-59
2024/03/02 00:36:13;;;;;;;9.17;8.23;;;8.00;69.90;;;;;;5061062;28;20217;-59
2024/03/02 00:38:39;;;;;;;9.50;8.60;;;8.00;70.00;;;;;;5057983;28;20251;-60
2024/03/02 00:41:06;;;;;;;9.70;8.50;;;8.20;68.70;;;;;;5062646;28;20228;-59
2024/03/02 00:43:32;;;;;;;8.80;7.90;;;8.20;68.00;;;;;;5057471;28;20240;-58
2024/03/02 00:45:58;;;;;;;9.90;8.10;;;8.20;68.30;;;;;;5058712;28;20711;-58
2024/03/02 00:48:25;;;;;;;8.53;7.63;;;8.10;67.80;;;;;;5056845;28;20221;-60
2024/03/02 00:50:51;;;;;;;8.93;8.13;;;8.10;67.90;;;;;;5044333;28;20626;-58
2024/03/02 00:53:18;;;;;;;9.17;8.27;;;8.00;68.20;;;;;;5052217;28;20230;-59
2024/03/02 00:55:47;;;;;;;9.33;7.93;;;8.10;68.20;;;;;;5056079;28;20232;-59
2024/03/02 00:58:13;;;;;;;8.40;7.60;;;8.10;67.80;;;;;;5061430;28;20201;-59
2024/03/02 01:00:40;;;;;;;7.87;7.17;;;8.10;67.80;;;;;;5060967;28;20626;-57
2024/03/02 01:03:07;;;;;;;8.23;7.43;;;8.10;68.20;;;;;;5060702;28;20260;-59
2024/03/02 01:05:34;;;;;;;8.43;7.70;;;8.10;67.70;;;;;;5061060;28;20210;-58
2024/03/02 01:08:01;;;;;;;9.53;7.73;;;7.80;69.90;;;;;;5051174;28;20206;-59
2024/03/02 01:10:27;;;;;;;8.20;7.43;;;7.90;69.30;;;;;;5056099;28;20229;-59
2024/03/02 01:12:54;;;;;;;7.93;7.13;;;7.90;69.00;;;;;;5056158;28;20224;-59
2024/03/02 01:15:21;;;;;;;8.40;7.60;;;7.90;69.10;;;;;;5061996;28;20260;-60
2024/03/02 01:17:47;;;;;;;8.60;7.80;;;8.00;68.20;;;;;;5060794;28;20430;-59
2024/03/02 01:20:14;;;;;;;8.90;8.03;;;7.90;68.40;;;;;;5059752;28;20209;-60
2024/03/02 01:22:40;;;;;;;10.20;9.20;;;7.90;68.60;;;;;;5055079;28;20225;-60
2024/03/02 01:25:07;;;;;;;9.73;8.83;;;7.90;68.20;;;;;;5060126;28;20628;-59
2024/03/02 01:27:33;;;;;;;10.67;9.17;;;7.90;68.10;;;;;;5056465;28;20211;-58
2024/03/02 01:30:00;;;;;;;10.40;9.40;;;8.00;67.70;;;;;;5057516;28;20271;-58
2024/03/02 01:32:26;;;;;;;9.73;8.60;;;7.90;68.10;;;;;;5056585;28;20230;-60
2024/03/02 01:34:53;;;;;;;9.83;8.93;;;7.70;68.90;;;;;;5053398;28;20700;-59
2024/03/02 01:37:19;;;;;;;9.33;8.43;;;7.60;69.50;;;;;;5056395;28;20217;-59
2024/03/02 01:39:46;;;;;;;9.53;8.63;;;7.80;69.20;;;;;;5060705;28;20213;-59
2024/03/02 01:42:12;;;;;;;10.17;9.23;;;7.80;68.80;;;;;;5060641;28;20255;-59
2024/03/02 01:44:39;;;;;;;9.63;8.73;;;7.70;69.20;;;;;;5060848;28;20209;-60
2024/03/02 01:47:05;;;;;;;8.77;7.97;;;7.70;69.20;;;;;;5060582;28;20564;-62
2024/03/02 01:49:33;;;;;;;9.70;8.77;;;7.50;70.40;;;;;;5060624;28;20205;-57
2024/03/02 01:52:00;;;;;;;9.47;8.63;;;7.50;71.00;;;;;;5050582;28;20259;-57
2024/03/02 01:54:26;;;;;;;9.40;8.47;;;7.60;70.00;;;;;;5057612;28;20206;-59
2024/03/02 01:56:53;;;;;;;10.83;9.73;;;7.60;70.20;;;;;;5060667;28;20262;-60
2024/03/02 01:59:19;;;;;;;17.33;13.20;;;7.80;69.50;;;;;;5060240;28;20206;-59
2024/03/02 02:01:46;;;;;;;10.53;9.53;;;8.00;67.70;;;;;;5060497;28;20578;-59
2024/03/02 02:04:13;;;;;;;10.40;9.30;;;8.10;67.20;;;;;;5060748;28;20268;-57
2024/03/02 02:06:40;;;;;;;14.43;11.10;;;8.10;66.40;;;;;;5060004;28;20202;-59
2024/03/02 02:09:08;;;;;;;9.53;8.60;;;8.10;66.40;;;;;;5051772;28;20240;-59
2024/03/02 02:11:34;;;;;;;9.30;8.40;;;7.90;67.20;;;;;;5058222;28;20217;-59
2024/03/02 02:14:01;;;;;;;10.60;9.57;;;8.00;66.30;;;;;;5056319;28;20206;-58
2024/03/02 02:16:27;;;;;;;8.77;7.97;;;7.90;66.50;;;;;;5060534;28;20209;-59
2024/03/02 02:18:54;;;;;;;8.37;7.67;;;8.00;66.60;;;;;;5060622;28;20209;-58
2024/03/02 02:21:20;;;;;;;7.30;6.60;;;8.00;66.30;;;;;;5059584;28;20750;-58
2024/03/02 02:23:48;;;;;;;8.07;7.37;;;8.00;66.30;;;;;;5059713;28;20252;-59
2024/03/02 02:26:14;;;;;;;7.57;6.87;;;8.00;66.30;;;;;;5061198;28;20209;-59
2024/03/02 02:28:46;;;;;;;7.70;7.00;;;8.10;66.40;;;;;;5045941;28;20258;-58
2024/03/02 02:31:13;;;;;;;8.37;7.57;;;8.10;66.40;;;;;;5051469;28;20266;-58
2024/03/02 02:33:39;;;;;;;8.90;8.10;;;7.90;66.20;;;;;;5060005;28;20236;-59
2024/03/02 02:36:06;;;;;;;8.50;7.70;;;8.10;66.40;;;;;;5056843;28;20216;-59
2024/03/02 02:38:32;;;;;;;9.20;8.20;;;8.10;66.40;;;;;;5059418;28;20213;-57
2024/03/02 02:40:59;;;;;;;8.73;7.53;;;8.10;66.40;;;;;;5059271;28;20244;-60
2024/03/02 02:43:25;;;;;;;9.23;8.33;;;8.00;66.50;;;;;;5058846;28;20299;-59
2024/03/02 02:45:52;;;;;;;9.43;8.40;;;8.00;66.30;;;;;;5050527;28;20608;-56
2024/03/02 02:48:18;;;;;;;11.00;8.13;;;8.10;66.40;;;;;;5053102;28;20206;-59
2024/03/02 02:50:45;;;;;;;9.37;8.40;;;8.10;66.40;;;;;;5047880;28;20233;-59
2024/03/02 02:53:11;;;;;;;11.00;8.27;;;8.10;66.40;;;;;;5040498;28;20233;-59
2024/03/02 02:55:40;;;;;;;9.73;8.73;;;8.00;66.30;;;;;;5059208;28;20222;-59
2024/03/02 02:58:06;;;;;;;9.60;8.60;;;8.00;66.90;;;;;;5052037;28;20198;-58
2024/03/02 03:00:33;;;;;;;9.23;8.00;;;7.90;67.10;;;;;;5059039;28;20206;-56
2024/03/02 03:02:59;;;;;;;8.37;7.60;;;8.00;67.20;;;;;;5051066;28;20229;-60
2024/03/02 03:05:26;;;;;;;8.87;8.07;;;7.90;67.20;;;;;;5054276;28;20209;-59
2024/03/02 03:07:52;;;;;;;9.33;8.33;;;7.90;66.50;;;;;;5060751;28;20276;-57
2024/03/02 03:10:21;;;;;;;9.03;8.10;;;8.10;66.80;;;;;;5050972;28;20213;-57
2024/03/02 03:12:49;;;;;;;8.90;8.00;;;8.10;66.40;;;;;;5058271;28;20233;-59
2024/03/02 03:15:16;;;;;;;9.47;8.57;;;8.00;66.30;;;;;;5053457;28;20255;-60
2024/03/02 03:17:42;;;;;;;8.50;7.63;;;8.10;66.40;;;;;;5047765;28;20686;-59
2024/03/02 03:20:10;;;;;;;9.17;8.27;;;8.10;66.40;;;;;;5038861;28;20263;-58
2024/03/02 03:22:36;;;;;;;9.20;8.30;;;8.20;66.40;;;;;;5046629;28;20624;-59
2024/03/02 03:25:03;;;;;;;8.63;7.73;;;8.10;66.40;;;;;;5052170;28;20270;-59
2024/03/02 03:27:30;;;;;;;8.97;7.97;;;8.10;66.40;;;;;;5052133;28;20289;-58
2024/03/02 03:29:56;;;;;;;9.13;8.20;;;8.10;66.40;;;;;;5062235;28;20209;-57
2024/03/02 03:32:23;;;;;;;8.93;8.13;;;8.10;66.70;;;;;;5048555;28;20717;-56
2024/03/02 03:34:50;;;;;;;8.67;7.87;;;8.10;66.70;;;;;;5050507;28;20746;-57
2024/03/02 03:37:16;;;;;;;8.70;7.90;;;8.10;66.40;;;;;;5057723;28;20206;-57
2024/03/02 03:39:43;;;;;;;9.10;8.27;;;8.10;67.00;;;;;;5046081;28;20268;-57
2024/03/02 03:42:09;;;;;;;9.13;8.23;;;8.10;66.40;;;;;;5053783;28;20265;-59
2024/03/02 03:44:36;;;;;;;8.63;7.83;;;8.10;66.90;;;;;;5048720;28;20214;-57
2024/03/02 03:47:02;;;;;;;7.93;7.13;;;8.20;66.40;;;;;;5058430;28;20618;-58
2024/03/02 03:49:29;;;;;;;8.27;7.47;;;8.10;67.20;;;;;;5060838;28;20741;-58
2024/03/02 03:51:55;;;;;;;8.47;7.67;;;8.10;67.40;;;;;;5051978;28;20238;-58
2024/03/02 03:54:22;;;;;;;7.90;7.20;;;8.10;67.30;;;;;;5052468;28;20203;-51
2024/03/02 03:56:48;;;;;;;7.53;6.83;;;8.00;66.70;;;;;;5056014;28;20224;-59
2024/03/02 03:59:15;;;;;;;8.43;7.63;;;8.00;67.20;;;;;;5048658;28;20629;-60
2024/03/02 04:01:42;;;;;;;7.90;7.20;;;8.00;67.70;;;;;;5058050;28;20249;-59
2024/03/02 04:04:08;;;;;;;8.10;7.30;;;8.00;67.70;;;;;;5061280;28;20210;-58
2024/03/02 04:06:35;;;;;;;9.13;8.33;;;8.00;67.60;;;;;;5062720;28;20210;-61
2024/03/02 04:09:01;;;;;;;9.07;8.27;;;8.10;67.40;;;;;;5059638;28;20224;-60
2024/03/02 04:11:28;;;;;;;9.80;8.90;;;8.00;67.60;;;;;;5060091;28;20280;-60
2024/03/02 04:13:54;;;;;;;9.63;8.70;;;7.80;69.00;;;;;;5061221;28;20206;-58
2024/03/02 04:16:21;;;;;;;9.30;8.40;;;7.70;70.20;;;;;;5048724;28;20206;-60
2024/03/02 04:18:47;;;;;;;9.20;8.40;;;7.80;69.30;;;;;;5059326;28;20271;-59
2024/03/02 04:21:14;;;;;;;9.53;8.33;;;7.90;69.20;;;;;;5060986;28;20233;-59
2024/03/02 04:23:40;;;;;;;9.97;9.03;;;8.00;68.10;;;;;;5057148;28;20291;-58
2024/03/02 04:26:07;;;;;;;10.13;9.10;;;8.10;67.70;;;;;;5054598;28;20209;-59
2024/03/02 04:28:33;;;;;;;9.57;8.63;;;8.10;67.50;;;;;;5063087;28;20206;-59
2024/03/02 04:31:00;;;;;;;10.23;9.27;;;8.20;67.50;;;;;;5062348;28;20572;-58
2024/03/02 04:33:26;;;;;;;10.20;9.20;;;8.10;66.90;;;;;;5055107;28;20565;-59
2024/03/02 04:35:53;;;;;;;10.33;9.33;;;8.10;67.10;;;;;;5041528;28;20206;-60
2024/03/02 04:38:19;;;;;;;10.57;9.60;;;8.00;67.10;;;;;;5051817;28;20214;-57
2024/03/02 04:40:46;;;;;;;10.77;9.67;;;8.00;67.60;;;;;;5050841;28;20210;-59
2024/03/02 04:43:16;;;;;;;10.70;9.60;;;8.00;67.70;;;;;;5060985;28;20711;-59
2024/03/02 04:45:42;;;;;;;11.13;10.03;;;7.90;67.50;;;;;;5062612;28;20210;-59
2024/03/02 04:48:09;;;;;;;10.50;9.50;;;8.00;67.60;;;;;;5062371;28;20219;-59
2024/03/02 04:50:35;;;;;;;11.87;9.93;;;7.90;67.50;;;;;;5063339;28;20213;-59
2024/03/02 04:53:02;;;;;;;11.10;10.00;;;7.90;67.50;;;;;;5050805;28;20226;-60
2024/03/02 04:55:58;;;;;;;10.70;9.70;;;8.00;67.60;;;;;;5057216;28;20256;-59
2024/03/02 04:58:24;;;;;;;10.60;9.50;;;8.00;67.90;;;;;;5054281;28;20213;-59
2024/03/02 05:00:51;;;;;;;11.60;10.40;;;7.90;68.90;;;;;;5062231;28;20210;-55
2024/03/02 05:03:17;;;;;;;10.73;9.60;;;7.90;68.80;;;;;;5054700;28;20264;-60
2024/03/02 05:05:44;;;;;;;11.17;10.07;;;7.90;68.80;;;;;;5054309;28;20206;-58
2024/03/02 05:08:11;;;;;;;12.10;10.10;;;7.80;69.50;;;;;;5053750;28;20302;-59
2024/03/02 05:10:38;;;;;;;10.13;9.17;;;7.90;69.90;;;;;;5056205;28;20269;-60
2024/03/02 05:13:05;;;;;;;10.23;9.17;;;7.90;69.90;;;;;;5058089;28;20221;-59
2024/03/02 05:15:31;;;;;;;11.77;10.57;;;7.90;70.10;;;;;;5062989;28;20350;-58
2024/03/02 05:17:59;;;;;;;11.30;10.17;;;7.90;70.50;;;;;;5061633;28;20201;-59
2024/03/02 05:20:25;;;;;;;11.20;10.10;;;7.80;70.20;;;;;;5049820;28;20221;-60
2024/03/02 05:22:52;;;;;;;11.50;10.40;;;7.90;70.50;;;;;;5057519;28;20237;-58
2024/03/02 05:25:19;;;;;;;12.10;10.13;;;8.00;69.30;;;;;;5050755;28;20210;-59
2024/03/02 05:27:46;;;;;;;10.80;9.53;;;8.00;69.60;;;;;;5053468;28;20230;-58
2024/03/02 05:30:12;;;;;;;12.73;10.77;;;7.90;70.00;;;;;;5053141;28;20301;-59
2024/03/02 05:32:39;;;;;;;11.60;10.30;;;7.90;70.30;;;;;;5052963;28;20224;-59
2024/03/02 05:35:06;;;;;;;12.10;10.73;;;7.90;70.00;;;;;;5055427;28;20228;-59
2024/03/02 05:37:32;;;;;;;10.80;9.73;;;7.90;70.00;;;;;;5061814;28;20213;-59
2024/03/02 05:39:59;;;;;;;11.03;9.70;;;7.90;71.00;;;;;;5061413;28;20205;-59
2024/03/02 05:42:26;;;;;;;12.50;11.03;;;8.00;70.80;;;;;;5049903;28;20605;-59
2024/03/02 05:44:54;;;;;;;11.63;10.43;;;8.00;70.80;;;;;;5049332;28;20217;-57
2024/03/02 05:47:20;;;;;;;12.17;10.47;;;8.00;70.80;;;;;;5053548;28;20216;-58
2024/03/02 05:49:47;;;;;;;10.57;9.47;;;8.10;70.30;;;;;;5058789;28;20240;-59
2024/03/02 05:52:13;;;;;;;11.30;10.17;;;8.00;70.70;;;;;;5058841;28;20234;-58
2024/03/02 05:54:40;;;;;;;10.67;9.60;;;8.00;70.60;;;;;;5062206;28;20270;-60
2024/03/02 05:57:27;;;;;;;11.77;10.67;;;7.90;70.40;;;;;;5061352;28;20288;-58
2024/03/02 05:59:53;;;;;;;11.20;10.03;;;7.90;70.40;;;;;;5061410;28;20208;-58
2024/03/02 06:02:20;;;;;;;11.57;10.37;;;7.80;70.20;;;;;;5060665;28;20616;-59
2024/03/02 06:04:47;;;;;;;11.57;10.47;;;7.90;71.20;;;;;;5045882;28;20211;-58
2024/03/02 06:07:13;;;;;;;11.10;10.00;;;7.90;70.90;;;;;;5345696;22;20255;-57
2024/03/02 06:09:39;;;;;;;12.63;10.97;;;7.90;71.00;;;;;;4977339;28;20215;-59
2024/03/02 06:12:06;;;;;;;12.17;10.87;;;7.90;70.70;;;;;;4974303;28;20221;-60
2024/03/02 06:14:33;;;;;;;10.80;9.80;;;7.90;70.70;;;;;;4977789;28;20587;-57
2024/03/02 06:16:59;;;;;;;11.20;10.10;;;7.90;71.10;;;;;;4987351;28;20667;-60
2024/03/02 06:19:26;;;;;;;12.37;10.87;;;7.90;71.50;;;;;;4982172;28;20209;-59
2024/03/02 06:21:52;;;;;;;11.30;10.20;;;7.90;70.80;;;;;;4978443;28;20711;-60
2024/03/02 06:24:19;;;;;;;10.83;9.73;;;7.90;70.60;;;;;;4971787;28;20225;-60
2024/03/02 06:26:45;;;;;;;11.33;10.23;;;8.00;71.00;;;;;;4978699;28;20208;-59
2024/03/02 06:29:12;;;;;;;11.90;10.70;;;8.00;70.80;;;;;;4981275;28;20214;-60
2024/03/02 06:31:38;;;;;;;11.23;10.13;;;8.00;70.80;;;;;;4972680;28;20229;-60
2024/03/02 06:34:05;;;;;;;11.10;10.00;;;8.10;70.90;;;;;;4980889;28;20747;-60
2024/03/02 06:36:32;;;;;;;11.27;10.10;;;8.10;70.40;;;;;;4981692;28;20208;-58
2024/03/02 06:38:58;;;;;;;12.33;10.47;;;8.10;70.30;;;;;;4976687;28;20762;-59
2024/03/02 06:41:26;;;;;;;10.63;9.60;;;8.10;70.20;;;;;;4982051;28;20232;-59
2024/03/02 06:43:59;;;;;;;11.67;10.47;;;8.10;70.30;;;;;;4982854;28;20252;-58
2024/03/02 06:46:25;;;;;;;12.57;11.03;;;8.10;70.20;;;;;;4973806;28;20288;-60
2024/03/02 06:48:52;;;;;;;13.10;11.80;;;7.90;70.70;;;;;;4982496;28;20207;-59
2024/03/02 06:51:18;;;;;;;13.20;11.83;;;8.00;71.00;;;;;;4974525;28;20224;-60
2024/03/02 06:53:46;;;;;;;17.07;11.40;;;7.90;71.10;;;;;;4982253;28;20277;-59
2024/03/02 06:56:12;;;;;;;12.10;10.90;;;7.90;71.70;;;;;;4982900;28;20722;-60
2024/03/02 06:58:39;;;;;;;12.93;11.53;;;7.90;71.90;;;;;;4977077;28;20204;-57
2024/03/02 07:01:05;;;;;;;12.70;11.33;;;8.00;71.20;;;;;;4978048;28;20218;-57
2024/03/02 07:03:32;;;;;;;12.43;11.13;;;8.10;70.90;;;;;;4981355;28;20239;-59
2024/03/02 07:05:59;;;;;;;12.40;11.13;;;8.10;70.90;;;;;;4981475;28;20212;-59
2024/03/02 07:08:26;;;;;;;12.73;11.40;;;8.10;70.80;;;;;;4974424;28;20224;-60
2024/03/02 07:10:52;;;;;;;12.03;10.83;;;8.10;70.90;;;;;;4980873;28;20280;-57
2024/03/02 07:13:20;;;;;;;13.53;12.13;;;8.10;70.80;;;;;;4981914;28;20201;-59
2024/03/02 07:16:12;;;;;;;13.17;11.83;;;8.20;70.70;;;;;;4983347;28;20204;-59
2024/03/02 07:18:41;;;;;;;14.07;12.57;;;8.10;70.60;;;;;;4972406;28;20400;-59
2024/03/02 07:21:07;;;;;;;14.47;12.50;;;8.20;70.60;;;;;;4982289;28;20222;-59
2024/03/02 07:23:34;;;;;;;12.80;11.37;;;8.10;70.90;;;;;;4981940;28;20274;-60
2024/03/02 07:26:01;;;;;;;13.40;12.00;;;8.10;71.00;;;;;;4982863;28;20212;-60
2024/03/02 07:28:28;;;;;;;13.13;11.73;;;8.20;70.70;;;;;;4979110;28;20789;-60
2024/03/02 07:30:54;;;;;;;13.40;12.00;;;8.20;70.80;;;;;;4978339;28;20276;-60
2024/03/02 07:33:22;;;;;;;13.30;11.90;;;8.20;70.90;;;;;;4981160;28;20197;-59
2024/03/02 07:35:49;;;;;;;13.20;11.87;;;8.20;71.00;;;;;;4979470;28;20213;-59
2024/03/02 07:38:15;;;;;;;13.27;11.87;;;8.20;71.20;;;;;;4977513;28;20208;-60
2024/03/02 07:40:42;;;;;;;14.23;11.73;;;8.20;71.00;;;;;;4976209;28;20212;-60
2024/03/02 07:43:08;;;;;;;13.80;11.37;;;8.20;70.60;;;;;;4981776;28;20232;-59
2024/03/02 07:45:35;;;;;;;14.13;11.53;;;8.30;70.90;;;;;;4974994;28;20261;-59
2024/03/02 07:48:03;;;;;;;14.90;12.50;;;8.40;70.10;;;;;;4973199;28;20204;-61
2024/03/02 07:50:30;;;;;;;15.10;12.83;;;8.50;68.90;;;;;;4974881;28;20304;-59
2024/03/02 07:52:56;;;;;;;13.93;11.80;;;8.60;68.60;;;;;;4973357;28;20225;-59
2024/03/02 07:55:23;;;;;;;16.00;12.03;;;8.80;67.00;;;;;;4970677;28;20284;-60
2024/03/02 07:57:50;;;;;;;13.17;11.80;;;8.60;66.10;;;;;;4971058;28;20215;-59
2024/03/02 08:00:16;;;;;;;14.47;12.23;;;8.30;66.50;;;;;;4973374;28;20215;-64
2024/03/02 08:02:43;;;;;;;14.07;12.13;;;8.20;66.50;;;;;;4963563;28;20229;-61
2024/03/02 08:05:09;;;;;;;16.17;13.23;;;8.10;66.80;;;;;;4974998;28;20232;-60
2024/03/02 08:07:36;;;;;;;15.33;12.93;;;8.30;67.80;;;;;;4978655;28;20263;-60
2024/03/02 08:10:02;;;;;;;15.60;12.20;;;8.30;66.50;;;;;;4975796;28;20220;-60
2024/03/02 08:12:29;;;;;;;15.03;12.30;;;8.40;66.60;;;;;;4979471;28;20232;-60
2024/03/02 08:14:55;;;;;;;12.87;11.33;;;8.60;66.80;;;;;;4969975;28;20248;-59
2024/03/02 08:17:22;;;;;;;13.90;12.40;;;8.70;66.90;;;;;;4977839;28;20213;-60
2024/03/02 08:19:48;;;;;;;13.37;11.70;;;8.70;66.40;;;;;;4978016;28;20236;-61
2024/03/02 08:22:15;;;;;;;12.53;10.93;;;8.70;66.20;;;;;;4981628;28;20308;-60
2024/03/02 08:24:41;;;;;;;12.00;10.33;;;8.80;64.90;;;;;;4977737;28;20229;-60
2024/03/02 08:27:09;;;;;;;13.43;11.73;;;8.90;64.70;;;;;;4979879;28;20213;-60
2024/03/02 08:29:35;;;;;;;12.33;11.07;;;9.10;63.60;;;;;;4975882;28;20214;-60
2024/03/02 08:32:02;;;;;;;10.83;9.53;;;9.30;64.90;;;;;;4977544;28;20608;-60
2024/03/02 08:34:29;;;;;;;11.87;9.40;;;9.50;62.60;;;;;;4977000;28;20235;-58
2024/03/02 08:36:55;;;;;;;9.80;8.80;;;9.70;61.40;;;;;;4974093;28;20273;-61
2024/03/02 08:39:21;;;;;;;9.97;8.50;;;9.90;60.10;;;;;;4962267;28;20278;-61
2024/03/02 08:41:48;;;;;;;10.57;8.67;;;10.30;58.90;;;;;;4969903;28;20235;-60
2024/03/02 08:44:14;;;;;;;9.27;8.13;;;10.40;58.20;;;;;;4972344;28;20279;-61
2024/03/02 08:46:41;;;;;;;9.77;8.37;;;10.60;57.10;;;;;;4971054;28;20213;-60
2024/03/02 08:49:07;;;;;;;9.70;8.07;;;10.80;55.90;;;;;;4977113;28;20276;-62
2024/03/02 08:51:34;;;;;;;8.90;7.97;;;11.00;56.00;;;;;;4964872;28;20233;-61
2024/03/02 08:54:00;;;;;;;10.27;8.73;;;11.30;55.20;;;;;;4967322;28;20209;-61
2024/03/02 08:56:27;;;;;;;11.00;9.70;;;11.50;54.80;;;;;;4967869;28;20232;-58
2024/03/02 08:58:53;;;;;;;10.87;9.77;;;11.50;54.20;;;;;;4964231;28;20224;-57
2024/03/02 09:01:20;;;;;;;11.27;10.07;;;11.60;54.20;;;;;;4972985;28;20462;-58
2024/03/02 09:03:46;;;;;;;12.20;10.80;;;11.90;54.30;;;;;;4965438;28;20329;-59
2024/03/02 09:06:13;;;;;;;12.50;10.63;;;12.10;54.30;;;;;;4974244;28;20211;-58
2024/03/02 09:08:40;;;;;;;13.13;11.27;;;12.30;54.70;;;;;;4976339;28;20207;-60
2024/03/02 09:11:06;;;;;;;12.40;11.10;;;12.60;54.20;;;;;;4975882;28;20204;-59
2024/03/02 09:13:33;;;;;;;12.27;11.03;;;12.60;52.60;;;;;;4975349;28;20640;-59
2024/03/02 09:15:59;;;;;;;12.27;10.97;;;12.60;52.70;;;;;;4969265;28;20239;-59
2024/03/02 09:18:26;;;;;;;12.50;11.20;;;12.60;53.00;;;;;;4968704;28;20447;-58
2024/03/02 09:20:52;;;;;;;12.17;10.87;;;12.50;53.20;;;;;;4970990;28;20272;-57
2024/03/02 09:23:19;;;;;;;12.27;10.93;;;12.40;53.30;;;;;;4963399;28;20204;-59
2024/03/02 09:25:45;;;;;;;11.13;10.03;;;12.50;53.50;;;;;;4966287;28;20672;-57
2024/03/02 09:28:12;;;;;;;12.40;10.30;;;12.80;52.80;;;;;;4976412;28;20212;-58
2024/03/02 09:30:38;;;;;;;11.57;9.60;;;12.70;51.40;;;;;;4972527;28;20276;-59
2024/03/02 09:33:05;;;;;;;10.33;9.33;;;12.90;51.60;;;;;;4970385;28;20225;-58
2024/03/02 09:35:31;;;;;;;10.13;9.13;;;12.90;50.50;;;;;;4975343;28;20210;-59
2024/03/02 09:37:58;;;;;;;9.33;8.43;;;13.00;50.40;;;;;;4969163;28;20266;-58
2024/03/02 09:40:24;;;;;;;8.30;7.20;;;12.80;49.70;;;;;;4973301;28;20209;-59
2024/03/02 09:42:52;;;;;;;9.90;8.87;;;13.00;49.40;;;;;;4974406;28;20220;-59
2024/03/02 09:45:19;;;;;;;13.53;10.10;;;13.20;50.10;;;;;;4977067;28;20238;-58
2024/03/02 09:47:45;;;;;;;8.90;8.00;;;13.30;50.00;;;;;;4978102;28;20208;-58
2024/03/02 09:50:12;;;;;;;10.63;9.30;;;13.20;49.30;;;;;;4978713;28;20209;-58
2024/03/02 09:52:38;;;;;;;9.57;8.57;;;13.10;49.60;;;;;;4972665;28;20779;-59
2024/03/02 09:55:05;;;;;;;7.43;6.67;;;13.30;49.70;;;;;;4978043;28;20267;-59
2024/03/02 09:57:32;;;;;;;8.80;7.80;;;13.50;47.60;;;;;;4976002;28;20237;-57
2024/03/02 09:59:58;;;;;;;8.57;7.77;;;13.60;47.30;;;;;;4979298;28;20218;-57
2024/03/02 10:02:25;;;;;;;8.93;8.03;;;13.50;48.00;;;;;;4971940;28;20241;-59
2024/03/02 10:04:51;;;;;;;9.77;8.77;;;13.50;48.90;;;;;;4974125;28;20226;-60
2024/03/02 10:07:18;;;;;;;8.73;7.83;;;13.80;47.90;;;;;;4981399;28;20246;-59
2024/03/02 10:09:44;;;;;;;16.77;8.07;;;13.80;48.30;;;;;;4973176;28;20584;-59
2024/03/02 10:12:11;;;;;;;8.47;7.67;;;14.00;47.20;;;;;;4974785;28;20255;-59
2024/03/02 10:14:37;;;;;;;9.00;7.73;;;14.30;46.00;;;;;;4972408;28;20285;-60
2024/03/02 10:17:04;;;;;;;9.10;8.17;;;14.50;46.60;;;;;;4974430;28;20219;-59
2024/03/02 10:19:32;;;;;;;8.43;7.63;;;14.50;45.40;;;;;;4975702;28;20242;-59
2024/03/02 10:21:59;;;;;;;8.50;7.43;;;14.50;44.80;;;;;;4978078;28;20231;-59
2024/03/02 10:24:25;;;;;;;9.10;8.10;;;14.30;45.50;;;;;;4972208;28;20231;-59
2024/03/02 10:26:52;;;;;;;9.07;7.80;;;14.10;45.10;;;;;;4975076;28;20782;-60
2024/03/02 10:29:18;;;;;;;8.63;7.73;;;13.90;47.10;;;;;;4975354;28;20271;-59
2024/03/02 10:31:45;;;;;;;8.17;7.37;;;14.30;44.80;;;;;;4973146;28;20228;-60
2024/03/02 10:34:12;;;;;;;8.00;7.20;;;14.30;44.70;;;;;;4977165;28;20197;-58
2024/03/02 10:36:38;;;;;;;8.37;7.47;;;14.60;44.20;;;;;;4972482;28;20738;-59
2024/03/02 10:39:06;;;;;;;8.60;7.63;;;14.60;44.00;;;;;;4967497;28;20304;-59
2024/03/02 10:41:33;;;;;;;7.17;6.47;;;15.10;43.00;;;;;;4971505;28;20254;-59
2024/03/02 10:43:59;;;;;;;8.03;7.20;;;15.10;43.20;;;;;;4970103;28;20233;-60
2024/03/02 10:46:26;;;;;;;8.07;7.00;;;15.50;41.50;;;;;;4955514;28;20207;-59
2024/03/02 10:48:52;;;;;;;7.97;6.93;;;15.40;42.90;;;;;;4956920;28;20240;-59
2024/03/02 10:51:19;;;;;;;9.57;7.70;;;15.70;41.90;;;;;;4959349;28;21686;-59
2024/03/02 10:53:45;;;;;;;8.50;7.60;;;16.10;40.70;;;;;;4967615;28;20205;-58
2024/03/02 10:56:13;;;;;;;9.60;7.37;;;16.20;40.70;;;;;;4973443;28;20209;-59
2024/03/02 10:58:40;;;;;;;9.33;7.83;;;15.90;40.50;;;;;;4979144;28;20196;-59
2024/03/02 11:01:06;;;;;;;11.63;8.83;;;15.90;41.80;;;;;;4977776;28;20635;-60
2024/03/02 11:03:35;;;;;;;12.20;8.80;;;15.70;41.00;;;;;;4977978;28;20204;-59
2024/03/02 11:06:01;;;;;;;9.80;7.90;;;16.10;40.70;;;;;;4960987;28;20233;-60
2024/03/02 11:08:28;;;;;;;11.60;9.40;;;16.40;40.60;;;;;;4974130;28;20264;-59
2024/03/02 11:10:55;;;;;;;11.50;9.30;;;16.50;39.90;;;;;;4972879;28;20219;-60
2024/03/02 11:13:21;;;;;;;11.67;9.83;;;16.60;40.00;;;;;;4970183;28;20243;-60
2024/03/02 11:15:48;;;;;;;12.53;8.57;;;16.70;39.30;;;;;;4970441;28;20258;-60
2024/03/02 11:18:14;;;;;;;11.50;9.27;;;16.50;39.70;;;;;;4975584;28;20209;-60
2024/03/02 11:20:41;;;;;;;11.13;9.43;;;16.90;39.60;;;;;;4973241;28;20250;-60
2024/03/02 11:23:07;;;;;;;11.67;10.30;;;17.40;38.80;;;;;;4971426;28;20220;-60
2024/03/02 11:25:34;;;;;;;11.35;9.13;;;17.10;39.00;;;;;;4965293;28;20232;-59
2024/03/02 11:28:01;;;;;;;12.30;10.43;;;17.40;39.10;;;;;;4969999;28;20209;-61
2024/03/02 11:30:27;;;;;;;12.80;10.38;;;17.60;37.60;;;;;;4973968;28;20227;-60
2024/03/02 11:32:54;;;;;;;12.15;9.30;;;18.00;37.10;;;;;;4967326;28;20236;-60
2024/03/02 11:35:20;;;;;;;12.77;10.77;;;18.40;36.30;;;;;;4963510;28;20213;-58
2024/03/02 11:37:47;;;;;;;13.60;9.90;;;18.40;35.60;;;;;;4971209;28;20208;-59
2024/03/02 11:40:14;;;;;;;11.55;9.60;;;18.50;36.00;;;;;;4973794;28;20292;-59
2024/03/02 11:42:42;;;;;;;12.73;10.15;;;19.00;35.50;;;;;;4970527;28;20224;-59
2024/03/02 11:45:09;;;;;;;12.85;10.18;;;19.10;34.90;;;;;;4973628;28;20232;-60
2024/03/02 11:47:35;;;;;;;14.27;10.15;;;19.20;34.70;;;;;;4967645;28;20300;-59
2024/03/02 11:50:02;;;;;;;12.13;9.93;;;19.60;34.20;;;;;;4974447;28;20209;-60
2024/03/02 11:52:30;;;;;;;11.63;9.23;;;19.90;33.10;;;;;;4978663;28;20228;-60
2024/03/02 11:54:56;;;;;;;12.98;11.07;;;19.90;33.20;;;;;;4977825;28;20205;-60
2024/03/02 11:57:23;;;;;;;12.15;9.85;;;19.50;34.00;;;;;;4967040;28;20205;-61
2024/03/02 11:59:50;;;;;;;12.73;10.90;;;20.20;32.70;;;;;;4972365;28;20626;-58
2024/03/02 12:02:18;;;;;;;12.70;11.02;;;20.20;32.60;;;;;;4973796;28;20810;-61
2024/03/02 12:04:44;;;;;;;12.15;10.77;;;20.30;32.60;;;;;;4971341;28;20227;-60
2024/03/02 12:07:11;;;;;;;13.43;11.13;;;20.00;33.10;;;;;;4975855;28;20243;-60
2024/03/02 12:09:38;;;;;;;13.82;11.45;;;20.30;32.30;;;;;;4966340;28;20255;-60
2024/03/02 12:12:04;;;;;;;17.02;12.32;;;20.00;33.40;;;;;;4975512;28;20238;-59
2024/03/02 12:14:31;;;;;;;13.02;10.40;;;20.60;32.60;;;;;;4969283;28;20209;-59
2024/03/02 12:16:58;;;;;;;14.80;12.00;;;20.90;32.30;;;;;;4976021;28;20599;-60
2024/03/02 12:19:25;;;;;;;16.27;12.80;;;20.80;31.60;;;;;;4976158;28;20213;-59
2024/03/02 12:21:51;;;;;;;13.93;11.40;;;20.90;31.80;;;;;;4959054;28;20306;-61
2024/03/02 12:24:20;;;;;;;13.88;12.35;;;20.60;31.40;;;;;;4963241;28;20971;-60
2024/03/02 12:26:48;;;;;;;14.60;10.98;;;20.60;32.40;;;;;;4973967;28;20235;-60
2024/03/02 12:29:15;;;;;;;11.10;9.98;;;20.30;32.80;;;;;;4976435;28;20200;-60
2024/03/02 12:31:41;;;;;;;13.77;12.00;;;20.20;32.50;;;;;;4975531;28;20233;-59
2024/03/02 12:34:07;;;;;;;12.77;11.30;;;19.30;33.90;;;;;;4973065;28;20249;-60
2024/03/02 12:36:34;;;;;;;15.65;11.85;;;18.80;35.10;;;;;;4974609;28;20259;-59
2024/03/02 12:39:00;;;;;;;13.40;12.00;;;19.30;34.60;;;;;;4972104;28;20205;-59
2024/03/02 12:41:27;;;;;;;14.60;12.40;;;19.70;34.30;;;;;;4972217;28;20288;-59